sensor_id;sensor_type;location;lat;lon;timestamp;P1;durP1;ratioP1;P2;durP2;ratioP2
38937;SDS011;24727;51.974;20.868;2023-11-19T14:39:46;29.38;;;14.60;;
38937;SDS011;24727;51.974;20.868;2023-11-19T14:42:13;30.23;;;15.07;;
38937;SDS011;24727;51.974;20.868;2023-11-19T14:44:40;25.75;;;14.32;;
38937;SDS011;24727;51.974;20.868;2023-11-19T14:47:06;38.83;;;21.67;;
38937;SDS011;24727;51.974;20.868;2023-11-19T14:49:34;25.25;;;13.45;;
38937;SDS011;24727;51.974;20.868;2023-11-19T14:52:04;29.95;;;16.23;;
38937;SDS011;24727;51.974;20.868;2023-11-19T14:54:31;34.92;;;18.65;;
38937;SDS011;24727;51.974;20.868;2023-11-19T14:56:57;31.38;;;16.38;;
38937;SDS011;24727;51.974;20.868;2023-11-19T14:59:25;29.05;;;15.80;;
38937;SDS011;24727;51.974;20.868;2023-11-19T15:01:51;26.33;;;14.90;;
38937;SDS011;24727;51.974;20.868;2023-11-19T15:04:21;28.55;;;16.33;;
38937;SDS011;24727;51.974;20.868;2023-11-19T15:09:16;24.67;;;14.02;;
38937;SDS011;24727;51.974;20.868;2023-11-19T15:11:55;38.25;;;22.95;;
38937;SDS011;24727;51.974;20.868;2023-11-19T15:14:22;36.88;;;22.48;;
38937;SDS011;24727;51.974;20.868;2023-11-19T15:16:48;30.50;;;17.23;;
38937;SDS011;24727;51.974;20.868;2023-11-19T15:19:17;25.38;;;12.88;;
38937;SDS011;24727;51.974;20.868;2023-11-19T15:21:46;26.73;;;16.00;;
38937;SDS011;24727;51.974;20.868;2023-11-19T15:24:13;31.98;;;18.08;;
38937;SDS011;24727;51.974;20.868;2023-11-19T15:26:39;29.65;;;15.82;;
38937;SDS011;24727;51.974;20.868;2023-11-19T15:29:05;49.15;;;24.38;;
38937;SDS011;24727;51.974;20.868;2023-11-19T15:31:31;25.00;;;13.02;;
38937;SDS011;24727;51.974;20.868;2023-11-19T15:33:57;23.92;;;12.73;;
38937;SDS011;24727;51.974;20.868;2023-11-19T15:36:24;28.90;;;15.02;;
38937;SDS011;24727;51.974;20.868;2023-11-19T15:40:36;28.23;;;15.07;;
38937;SDS011;24727;51.974;20.868;2023-11-19T15:43:03;25.15;;;12.93;;
38937;SDS011;24727;51.974;20.868;2023-11-19T15:45:33;24.30;;;13.63;;
38937;SDS011;24727;51.974;20.868;2023-11-19T15:48:03;30.77;;;15.88;;
38937;SDS011;24727;51.974;20.868;2023-11-19T15:50:30;26.33;;;12.20;;
38937;SDS011;24727;51.974;20.868;2023-11-19T15:52:57;23.65;;;12.25;;
38937;SDS011;24727;51.974;20.868;2023-11-19T15:55:24;25.02;;;11.68;;
38937;SDS011;24727;51.974;20.868;2023-11-19T15:57:50;28.42;;;16.73;;
38937;SDS011;24727;51.974;20.868;2023-11-19T16:00:17;26.55;;;15.85;;
38937;SDS011;24727;51.974;20.868;2023-11-19T16:02:46;22.70;;;12.27;;
38937;SDS011;24727;51.974;20.868;2023-11-19T16:05:13;22.45;;;12.43;;
38937;SDS011;24727;51.974;20.868;2023-11-19T16:07:40;21.00;;;11.68;;
38937;SDS011;24727;51.974;20.868;2023-11-19T16:10:07;23.33;;;12.13;;
38937;SDS011;24727;51.974;20.868;2023-11-19T16:12:35;21.65;;;11.25;;
38937;SDS011;24727;51.974;20.868;2023-11-19T16:15:02;21.38;;;11.98;;
38937;SDS011;24727;51.974;20.868;2023-11-19T16:17:31;21.05;;;11.63;;
38937;SDS011;24727;51.974;20.868;2023-11-19T16:19:59;19.73;;;10.68;;
38937;SDS011;24727;51.974;20.868;2023-11-19T16:22:26;19.20;;;10.65;;
38937;SDS011;24727;51.974;20.868;2023-11-19T16:24:52;21.63;;;11.35;;
38937;SDS011;24727;51.974;20.868;2023-11-19T16:27:20;19.23;;;10.90;;
38937;SDS011;24727;51.974;20.868;2023-11-19T16:29:46;21.23;;;11.38;;
38937;SDS011;24727;51.974;20.868;2023-11-19T16:32:12;28.73;;;15.55;;
38937;SDS011;24727;51.974;20.868;2023-11-19T16:34:38;24.95;;;16.23;;
38937;SDS011;24727;51.974;20.868;2023-11-19T16:37:08;19.48;;;11.98;;
38937;SDS011;24727;51.974;20.868;2023-11-19T16:39:35;21.35;;;10.68;;
38937;SDS011;24727;51.974;20.868;2023-11-19T16:42:02;22.90;;;11.55;;
38937;SDS011;24727;51.974;20.868;2023-11-19T16:44:28;19.38;;;11.73;;
38937;SDS011;24727;51.974;20.868;2023-11-19T16:46:54;24.08;;;12.80;;
38937;SDS011;24727;51.974;20.868;2023-11-19T16:49:20;21.73;;;11.95;;
38937;SDS011;24727;51.974;20.868;2023-11-19T16:51:48;18.73;;;10.10;;
38937;SDS011;24727;51.974;20.868;2023-11-19T16:54:14;19.00;;;10.35;;
38937;SDS011;24727;51.974;20.868;2023-11-19T16:56:44;20.50;;;11.65;;
38937;SDS011;24727;51.974;20.868;2023-11-19T16:59:10;21.08;;;13.15;;
38937;SDS011;24727;51.974;20.868;2023-11-19T17:01:38;53.17;;;13.43;;
38937;SDS011;24727;51.974;20.868;2023-11-19T17:04:05;49.90;;;22.02;;
38937;SDS011;24727;51.974;20.868;2023-11-19T17:06:37;21.88;;;12.90;;
38937;SDS011;24727;51.974;20.868;2023-11-19T17:09:04;24.55;;;13.43;;
38937;SDS011;24727;51.974;20.868;2023-11-19T17:11:30;88.00;;;33.63;;
38937;SDS011;24727;51.974;20.868;2023-11-19T17:13:58;39.88;;;18.40;;
38937;SDS011;24727;51.974;20.868;2023-11-19T17:16:24;34.00;;;16.25;;
38937;SDS011;24727;51.974;20.868;2023-11-19T17:18:50;68.97;;;30.63;;
38937;SDS011;24727;51.974;20.868;2023-11-19T17:21:16;48.25;;;24.85;;
38937;SDS011;24727;51.974;20.868;2023-11-19T17:23:42;36.67;;;20.73;;
38937;SDS011;24727;51.974;20.868;2023-11-19T17:26:09;35.42;;;18.48;;
38937;SDS011;24727;51.974;20.868;2023-11-19T17:28:36;33.47;;;16.45;;
38937;SDS011;24727;51.974;20.868;2023-11-19T17:31:02;24.38;;;12.27;;
38937;SDS011;24727;51.974;20.868;2023-11-19T17:33:33;22.02;;;11.32;;
38937;SDS011;24727;51.974;20.868;2023-11-19T17:35:59;21.05;;;12.85;;
38937;SDS011;24727;51.974;20.868;2023-11-19T17:38:26;22.25;;;12.80;;
38937;SDS011;24727;51.974;20.868;2023-11-19T17:40:53;23.65;;;14.60;;
38937;SDS011;24727;51.974;20.868;2023-11-19T17:43:22;17.77;;;11.23;;
38937;SDS011;24727;51.974;20.868;2023-11-19T17:45:54;22.83;;;12.43;;
38937;SDS011;24727;51.974;20.868;2023-11-19T17:48:26;31.23;;;17.95;;
38937;SDS011;24727;51.974;20.868;2023-11-19T17:50:52;24.33;;;14.05;;
38937;SDS011;24727;51.974;20.868;2023-11-19T17:53:20;40.85;;;21.58;;
38937;SDS011;24727;51.974;20.868;2023-11-19T17:55:49;25.83;;;13.70;;
38937;SDS011;24727;51.974;20.868;2023-11-19T17:58:15;42.30;;;23.50;;
38937;SDS011;24727;51.974;20.868;2023-11-19T18:00:43;22.23;;;13.20;;
38937;SDS011;24727;51.974;20.868;2023-11-19T18:03:09;61.38;;;33.40;;
38937;SDS011;24727;51.974;20.868;2023-11-19T18:05:36;22.02;;;13.73;;
38937;SDS011;24727;51.974;20.868;2023-11-19T18:08:07;19.08;;;11.60;;
38937;SDS011;24727;51.974;20.868;2023-11-19T18:10:36;28.83;;;15.02;;
38937;SDS011;24727;51.974;20.868;2023-11-19T18:13:02;32.15;;;16.55;;
38937;SDS011;24727;51.974;20.868;2023-11-19T18:15:28;18.77;;;11.70;;
38937;SDS011;24727;51.974;20.868;2023-11-19T18:17:55;25.90;;;14.25;;
38937;SDS011;24727;51.974;20.868;2023-11-19T18:20:21;63.60;;;27.33;;
38937;SDS011;24727;51.974;20.868;2023-11-19T18:22:48;22.83;;;11.82;;
38937;SDS011;24727;51.974;20.868;2023-11-19T18:25:14;20.55;;;11.48;;
38937;SDS011;24727;51.974;20.868;2023-11-19T18:27:49;18.13;;;10.60;;
38937;SDS011;24727;51.974;20.868;2023-11-19T18:30:15;19.08;;;10.18;;
38937;SDS011;24727;51.974;20.868;2023-11-19T18:32:42;17.15;;;10.05;;
38937;SDS011;24727;51.974;20.868;2023-11-19T18:35:19;14.90;;;9.00;;
38937;SDS011;24727;51.974;20.868;2023-11-19T18:37:48;16.88;;;9.68;;
38937;SDS011;24727;51.974;20.868;2023-11-19T18:40:15;24.48;;;13.13;;
38937;SDS011;24727;51.974;20.868;2023-11-19T18:42:59;20.08;;;11.45;;
38937;SDS011;24727;51.974;20.868;2023-11-19T18:45:29;17.67;;;9.48;;
38937;SDS011;24727;51.974;20.868;2023-11-19T18:48:00;14.75;;;8.70;;
38937;SDS011;24727;51.974;20.868;2023-11-19T18:50:29;16.48;;;9.35;;
38937;SDS011;24727;51.974;20.868;2023-11-19T18:52:56;17.25;;;9.82;;
38937;SDS011;24727;51.974;20.868;2023-11-19T18:55:24;15.10;;;9.30;;
38937;SDS011;24727;51.974;20.868;2023-11-19T18:57:51;20.38;;;9.73;;
38937;SDS011;24727;51.974;20.868;2023-11-19T19:00:18;20.75;;;10.73;;
38937;SDS011;24727;51.974;20.868;2023-11-19T19:02:46;16.40;;;9.45;;
38937;SDS011;24727;51.974;20.868;2023-11-19T19:05:18;15.45;;;9.23;;
38937;SDS011;24727;51.974;20.868;2023-11-19T19:07:46;13.95;;;8.48;;
38937;SDS011;24727;51.974;20.868;2023-11-19T19:10:14;19.23;;;11.45;;
38937;SDS011;24727;51.974;20.868;2023-11-19T19:12:41;19.38;;;10.65;;
38937;SDS011;24727;51.974;20.868;2023-11-19T19:15:09;15.18;;;9.10;;
38937;SDS011;24727;51.974;20.868;2023-11-19T19:17:39;17.95;;;10.75;;
38937;SDS011;24727;51.974;20.868;2023-11-19T19:20:07;14.55;;;9.00;;
38937;SDS011;24727;51.974;20.868;2023-11-19T19:22:36;21.55;;;9.32;;
38937;SDS011;24727;51.974;20.868;2023-11-19T19:25:05;19.08;;;10.57;;
38937;SDS011;24727;51.974;20.868;2023-11-19T19:27:32;15.98;;;8.77;;
38937;SDS011;24727;51.974;20.868;2023-11-19T19:29:59;14.75;;;8.27;;
38937;SDS011;24727;51.974;20.868;2023-11-19T19:32:27;13.32;;;8.23;;
38937;SDS011;24727;51.974;20.868;2023-11-19T19:34:54;15.05;;;8.07;;
38937;SDS011;24727;51.974;20.868;2023-11-19T19:37:21;14.15;;;8.57;;
38937;SDS011;24727;51.974;20.868;2023-11-19T19:39:48;11.27;;;6.88;;
38937;SDS011;24727;51.974;20.868;2023-11-19T19:42:15;13.70;;;6.90;;
38937;SDS011;24727;51.974;20.868;2023-11-19T19:44:41;12.98;;;7.32;;
38937;SDS011;24727;51.974;20.868;2023-11-19T19:47:07;13.07;;;7.80;;
38937;SDS011;24727;51.974;20.868;2023-11-19T19:49:33;13.85;;;7.38;;
38937;SDS011;24727;51.974;20.868;2023-11-19T19:52:01;18.10;;;8.68;;
38937;SDS011;24727;51.974;20.868;2023-11-19T19:54:28;13.27;;;7.57;;
38937;SDS011;24727;51.974;20.868;2023-11-19T19:56:55;13.60;;;7.35;;
38937;SDS011;24727;51.974;20.868;2023-11-19T19:59:22;13.90;;;7.28;;
38937;SDS011;24727;51.974;20.868;2023-11-19T20:01:49;13.13;;;7.38;;
38937;SDS011;24727;51.974;20.868;2023-11-19T20:04:22;11.60;;;6.72;;
38937;SDS011;24727;51.974;20.868;2023-11-19T20:06:48;13.55;;;7.57;;
38937;SDS011;24727;51.974;20.868;2023-11-19T20:09:16;10.75;;;6.78;;
38937;SDS011;24727;51.974;20.868;2023-11-19T20:11:42;16.85;;;7.80;;
38937;SDS011;24727;51.974;20.868;2023-11-19T20:14:09;14.40;;;8.25;;
38937;SDS011;24727;51.974;20.868;2023-11-19T20:16:36;13.95;;;7.07;;
38937;SDS011;24727;51.974;20.868;2023-11-19T20:19:02;16.50;;;8.27;;
38937;SDS011;24727;51.974;20.868;2023-11-19T20:21:28;12.10;;;7.47;;
38937;SDS011;24727;51.974;20.868;2023-11-19T20:23:55;12.35;;;7.75;;
38937;SDS011;24727;51.974;20.868;2023-11-19T20:26:22;12.68;;;6.38;;
38937;SDS011;24727;51.974;20.868;2023-11-19T20:28:55;12.20;;;6.95;;
38937;SDS011;24727;51.974;20.868;2023-11-19T20:31:22;10.93;;;6.75;;
38937;SDS011;24727;51.974;20.868;2023-11-19T20:33:48;12.75;;;7.03;;
38937;SDS011;24727;51.974;20.868;2023-11-19T20:36:14;11.45;;;7.25;;
38937;SDS011;24727;51.974;20.868;2023-11-19T20:38:40;10.27;;;7.05;;
38937;SDS011;24727;51.974;20.868;2023-11-19T20:41:08;11.07;;;6.53;;
38937;SDS011;24727;51.974;20.868;2023-11-19T20:43:36;10.88;;;5.95;;
38937;SDS011;24727;51.974;20.868;2023-11-19T20:46:02;10.32;;;6.80;;
38937;SDS011;24727;51.974;20.868;2023-11-19T20:48:31;12.65;;;6.70;;
38937;SDS011;24727;51.974;20.868;2023-11-19T20:50:58;11.07;;;5.97;;
38937;SDS011;24727;51.974;20.868;2023-11-19T20:53:24;12.85;;;7.60;;
38937;SDS011;24727;51.974;20.868;2023-11-19T20:55:51;13.00;;;6.80;;
38937;SDS011;24727;51.974;20.868;2023-11-19T20:58:18;10.52;;;6.43;;
38937;SDS011;24727;51.974;20.868;2023-11-19T21:00:43;10.40;;;6.65;;
38937;SDS011;24727;51.974;20.868;2023-11-19T21:03:11;12.35;;;6.88;;
38937;SDS011;24727;51.974;20.868;2023-11-19T21:05:37;11.80;;;5.88;;
38937;SDS011;24727;51.974;20.868;2023-11-19T21:08:05;11.15;;;6.18;;
38937;SDS011;24727;51.974;20.868;2023-11-19T21:10:32;10.18;;;6.20;;
38937;SDS011;24727;51.974;20.868;2023-11-19T21:12:59;12.55;;;7.15;;
38937;SDS011;24727;51.974;20.868;2023-11-19T21:15:26;13.70;;;7.40;;
38937;SDS011;24727;51.974;20.868;2023-11-19T21:17:53;10.82;;;7.20;;
38937;SDS011;24727;51.974;20.868;2023-11-19T21:20:19;13.65;;;7.25;;
38937;SDS011;24727;51.974;20.868;2023-11-19T21:22:46;12.85;;;5.95;;
38937;SDS011;24727;51.974;20.868;2023-11-19T21:25:12;11.02;;;6.47;;
38937;SDS011;24727;51.974;20.868;2023-11-19T21:27:38;12.02;;;6.00;;
38937;SDS011;24727;51.974;20.868;2023-11-19T21:30:04;11.93;;;6.30;;
38937;SDS011;24727;51.974;20.868;2023-11-19T21:32:31;10.05;;;6.45;;
38937;SDS011;24727;51.974;20.868;2023-11-19T21:34:57;7.10;;;4.93;;
38937;SDS011;24727;51.974;20.868;2023-11-19T21:37:24;11.90;;;7.60;;
38937;SDS011;24727;51.974;20.868;2023-11-19T21:39:50;11.90;;;6.93;;
38937;SDS011;24727;51.974;20.868;2023-11-19T21:42:16;11.88;;;7.15;;
38937;SDS011;24727;51.974;20.868;2023-11-19T21:44:42;13.18;;;7.32;;
38937;SDS011;24727;51.974;20.868;2023-11-19T21:47:08;10.27;;;6.90;;
38937;SDS011;24727;51.974;20.868;2023-11-19T21:49:34;10.45;;;6.55;;
38937;SDS011;24727;51.974;20.868;2023-11-19T21:52:04;11.52;;;6.57;;
38937;SDS011;24727;51.974;20.868;2023-11-19T21:54:33;11.82;;;6.55;;
38937;SDS011;24727;51.974;20.868;2023-11-19T21:56:59;10.57;;;6.28;;
38937;SDS011;24727;51.974;20.868;2023-11-19T21:59:27;13.95;;;6.93;;
38937;SDS011;24727;51.974;20.868;2023-11-19T22:01:54;8.70;;;5.45;;
38937;SDS011;24727;51.974;20.868;2023-11-19T22:04:20;11.32;;;6.50;;
38937;SDS011;24727;51.974;20.868;2023-11-19T22:06:46;11.25;;;6.28;;
38937;SDS011;24727;51.974;20.868;2023-11-19T22:09:14;12.40;;;6.25;;
38937;SDS011;24727;51.974;20.868;2023-11-19T22:11:41;10.18;;;6.28;;
38937;SDS011;24727;51.974;20.868;2023-11-19T22:14:07;11.07;;;5.93;;
38937;SDS011;24727;51.974;20.868;2023-11-19T22:16:34;11.43;;;6.53;;
38937;SDS011;24727;51.974;20.868;2023-11-19T22:19:00;10.85;;;6.13;;
38937;SDS011;24727;51.974;20.868;2023-11-19T22:21:28;11.82;;;6.78;;
38937;SDS011;24727;51.974;20.868;2023-11-19T22:23:53;10.65;;;6.55;;
38937;SDS011;24727;51.974;20.868;2023-11-19T22:26:19;9.50;;;5.47;;
38937;SDS011;24727;51.974;20.868;2023-11-19T22:28:45;11.00;;;5.97;;
38937;SDS011;24727;51.974;20.868;2023-11-19T22:31:13;8.98;;;5.50;;
38937;SDS011;24727;51.974;20.868;2023-11-19T22:33:39;8.60;;;4.97;;
38937;SDS011;24727;51.974;20.868;2023-11-19T22:36:06;11.15;;;5.07;;
38937;SDS011;24727;51.974;20.868;2023-11-19T22:38:32;9.05;;;5.30;;
38937;SDS011;24727;51.974;20.868;2023-11-19T22:40:58;10.35;;;6.00;;
38937;SDS011;24727;51.974;20.868;2023-11-19T22:43:24;9.52;;;5.43;;
38937;SDS011;24727;51.974;20.868;2023-11-19T22:45:50;10.35;;;5.97;;
38937;SDS011;24727;51.974;20.868;2023-11-19T22:48:16;10.13;;;5.32;;
38937;SDS011;24727;51.974;20.868;2023-11-19T22:50:42;10.77;;;5.65;;
38937;SDS011;24727;51.974;20.868;2023-11-19T22:53:14;9.02;;;4.82;;
38937;SDS011;24727;51.974;20.868;2023-11-19T22:55:41;9.35;;;5.82;;
38937;SDS011;24727;51.974;20.868;2023-11-19T22:58:08;9.75;;;5.55;;
38937;SDS011;24727;51.974;20.868;2023-11-19T23:00:34;8.75;;;5.63;;
38937;SDS011;24727;51.974;20.868;2023-11-19T23:03:03;10.15;;;5.60;;
38937;SDS011;24727;51.974;20.868;2023-11-19T23:05:29;10.63;;;6.50;;
38937;SDS011;24727;51.974;20.868;2023-11-19T23:07:59;12.27;;;6.53;;
38937;SDS011;24727;51.974;20.868;2023-11-19T23:10:25;9.93;;;6.13;;
38937;SDS011;24727;51.974;20.868;2023-11-19T23:12:51;9.32;;;5.60;;
38937;SDS011;24727;51.974;20.868;2023-11-19T23:15:17;9.63;;;5.47;;
38937;SDS011;24727;51.974;20.868;2023-11-19T23:17:44;10.38;;;5.38;;
38937;SDS011;24727;51.974;20.868;2023-11-19T23:20:10;9.82;;;5.35;;
38937;SDS011;24727;51.974;20.868;2023-11-19T23:22:39;11.38;;;6.00;;
38937;SDS011;24727;51.974;20.868;2023-11-19T23:25:05;9.15;;;5.78;;
38937;SDS011;24727;51.974;20.868;2023-11-19T23:27:33;9.25;;;5.75;;
38937;SDS011;24727;51.974;20.868;2023-11-19T23:30:00;10.52;;;5.10;;
38937;SDS011;24727;51.974;20.868;2023-11-19T23:32:27;13.02;;;5.95;;
38937;SDS011;24727;51.974;20.868;2023-11-19T23:34:53;10.30;;;5.80;;
38937;SDS011;24727;51.974;20.868;2023-11-19T23:37:19;8.00;;;4.80;;
38937;SDS011;24727;51.974;20.868;2023-11-19T23:39:45;8.18;;;5.30;;
38937;SDS011;24727;51.974;20.868;2023-11-19T23:42:10;11.10;;;5.50;;
38937;SDS011;24727;51.974;20.868;2023-11-19T23:44:36;5.95;;;4.03;;
38937;SDS011;24727;51.974;20.868;2023-11-19T23:47:09;8.05;;;4.60;;
38937;SDS011;24727;51.974;20.868;2023-11-19T23:49:35;9.98;;;5.50;;
38937;SDS011;24727;51.974;20.868;2023-11-19T23:52:03;9.82;;;5.20;;
38937;SDS011;24727;51.974;20.868;2023-11-19T23:54:32;7.22;;;4.72;;
38937;SDS011;24727;51.974;20.868;2023-11-19T23:57:00;8.68;;;5.15;;
38937;SDS011;24727;51.974;20.868;2023-11-19T23:59:27;8.95;;;4.72;;
